createdAt,value
2023-03-29T00:00:41.726Z,15.7
2023-03-29T00:06:46.939Z,15.7
2023-03-29T00:12:52.057Z,15.7
2023-03-29T00:18:57.616Z,15.7
2023-03-29T00:25:03.404Z,15.7
2023-03-29T00:31:09.604Z,15.7
2023-03-29T00:37:15.360Z,15.7
2023-03-29T00:43:20.571Z,15.7
2023-03-29T00:49:26.296Z,15.7
2023-03-29T00:55:32.275Z,15.7
2023-03-29T01:01:38.080Z,15.7
2023-03-29T01:07:44.437Z,15.7
2023-03-29T01:13:50.426Z,15.6
2023-03-29T01:19:56.206Z,15.6
2023-03-29T01:26:01.988Z,15.6
2023-03-29T01:32:07.863Z,15.6
2023-03-29T01:38:13.818Z,15.6
2023-03-29T01:44:19.574Z,15.6
2023-03-29T01:50:25.130Z,15.6
2023-03-29T01:56:30.510Z,15.6
2023-03-29T02:02:36.329Z,15.6
2023-03-29T02:08:42.705Z,15.6
2023-03-29T02:14:48.411Z,15.6
2023-03-29T02:20:53.996Z,15.6
2023-03-29T02:26:59.982Z,15.6
2023-03-29T02:33:05.572Z,15.6
2023-03-29T02:39:11.510Z,15.6
2023-03-29T02:45:17.092Z,15.6
2023-03-29T02:51:22.252Z,15.6
2023-03-29T02:57:27.875Z,15.6
2023-03-29T03:03:33.323Z,15.6
2023-03-29T03:09:39.185Z,15.6
2023-03-29T03:15:45.551Z,15.6
2023-03-29T03:21:50.936Z,15.6
2023-03-29T03:27:56.709Z,15.6
2023-03-29T03:34:02.681Z,15.6
2023-03-29T03:40:08.121Z,15.6
2023-03-29T03:46:13.643Z,15.6
2023-03-29T03:52:19.591Z,15.6
2023-03-29T03:58:24.978Z,15.6
2023-03-29T04:04:30.843Z,15.6
2023-03-29T04:10:36.569Z,15.6
2023-03-29T04:16:41.941Z,15.6
2023-03-29T04:22:47.526Z,15.6
2023-03-29T04:28:54.068Z,15.6
2023-03-29T04:34:59.902Z,15.6
2023-03-29T04:41:05.098Z,15.6
2023-03-29T04:47:10.629Z,15.6
2023-03-29T04:53:16.229Z,15.7
2023-03-29T04:59:22.003Z,15.7
2023-03-29T05:05:27.770Z,15.7
2023-03-29T05:11:33.899Z,15.8
2023-03-29T05:17:39.708Z,15.8
2023-03-29T05:23:46.091Z,15.8
2023-03-29T05:29:51.846Z,15.8
2023-03-29T05:35:57.437Z,15.8
2023-03-29T05:42:03.821Z,15.8
2023-03-29T05:48:09.412Z,15.9
2023-03-29T05:54:14.733Z,15.9
2023-03-29T06:00:19.690Z,15.9
2023-03-29T06:06:25.264Z,15.9
2023-03-29T06:12:30.852Z,15.9
2023-03-29T06:18:36.416Z,15.9
2023-03-29T06:24:41.785Z,15.9
2023-03-29T06:30:47.380Z,15.9
2023-03-29T06:36:53.756Z,15.9
2023-03-29T06:42:59.772Z,15.9
2023-03-29T06:49:05.517Z,15.9
2023-03-29T06:55:11.505Z,15.9
2023-03-29T07:01:17.075Z,15.9
2023-03-29T07:07:22.253Z,16
2023-03-29T07:13:28.250Z,16
2023-03-29T07:19:34.075Z,16
2023-03-29T07:25:39.767Z,16
2023-03-29T07:31:46.378Z,16
2023-03-29T07:37:51.931Z,16
2023-03-29T07:43:58.151Z,16
2023-03-29T07:50:07.396Z,16
2023-03-29T07:56:13.182Z,16.1
2023-03-29T08:02:19.140Z,16.1
2023-03-29T08:08:24.342Z,16.1
2023-03-29T08:14:29.697Z,16.1
2023-03-29T08:20:35.456Z,16.1
2023-03-29T08:26:41.495Z,16.1
2023-03-29T08:32:50.444Z,16.1
2023-03-29T08:38:59.566Z,16.1
2023-03-29T08:45:05.810Z,16.1
2023-03-29T08:51:12.120Z,16.1
2023-03-29T08:57:18.167Z,16.1
2023-03-29T09:03:23.503Z,16.2
2023-03-29T09:09:29.452Z,16.2
2023-03-29T09:15:35.490Z,16.2
2023-03-29T09:21:41.489Z,16.2
2023-03-29T09:27:46.801Z,16.2
2023-03-29T09:33:52.789Z,16.2
2023-03-29T09:39:59.168Z,16.2
2023-03-29T09:46:07.907Z,16.2
2023-03-29T09:52:13.976Z,16.2
2023-03-29T09:58:19.787Z,16.2
2023-03-29T10:04:25.768Z,16.2
2023-03-29T10:10:31.714Z,16.2
2023-03-29T10:16:37.925Z,16.2
2023-03-29T10:22:44.319Z,16.2
2023-03-29T10:28:49.675Z,16.2
2023-03-29T10:34:55.242Z,16.2
2023-03-29T10:41:01.247Z,16.2
2023-03-29T10:47:07.628Z,16.2
2023-03-29T10:53:13.381Z,16.2
2023-03-29T10:59:19.172Z,16.2
2023-03-29T11:05:25.379Z,16.2
2023-03-29T11:11:31.560Z,16.2
2023-03-29T11:17:37.399Z,16.2
2023-03-29T11:23:42.897Z,16.2
2023-03-29T11:29:48.623Z,16.2
2023-03-29T11:35:54.679Z,16.2
2023-03-29T11:42:00.656Z,16.2
2023-03-29T11:48:07.249Z,16.2
2023-03-29T11:54:13.413Z,16.2
2023-03-29T12:00:19.050Z,16.2
2023-03-29T12:06:24.575Z,16.2
2023-03-29T12:12:30.775Z,16.2
2023-03-29T12:18:36.413Z,16.2
2023-03-29T12:24:42.694Z,16.2
2023-03-29T12:30:48.755Z,16.2
2023-03-29T12:36:54.472Z,16.2
2023-03-29T12:43:00.676Z,16.2
2023-03-29T12:49:06.853Z,16.2
2023-03-29T12:55:12.649Z,16.2
2023-03-29T13:01:18.121Z,16.2
2023-03-29T13:07:24.797Z,16.2
2023-03-29T13:13:30.810Z,16.2
2023-03-29T13:19:36.205Z,16.2
2023-03-29T13:25:42.320Z,16.2
2023-03-29T13:31:47.591Z,16.2
2023-03-29T13:37:53.563Z,16.2
2023-03-29T13:43:58.909Z,16.2
2023-03-29T13:50:04.521Z,16.2
2023-03-29T13:56:11.000Z,16.2
2023-03-29T14:02:16.853Z,16.2
2023-03-29T14:08:22.171Z,16.2
2023-03-29T14:14:28.180Z,16.3
2023-03-29T14:20:34.326Z,16.3
2023-03-29T14:26:40.295Z,16.3
2023-03-29T14:32:46.374Z,16.3
2023-03-29T14:38:51.949Z,16.4
2023-03-29T14:44:57.427Z,16.4
2023-03-29T14:51:03.233Z,16.4
2023-03-29T14:57:09.032Z,16.4
2023-03-29T15:03:15.015Z,16.4
2023-03-29T15:09:22.190Z,16.4
2023-03-29T15:15:27.414Z,16.4
2023-03-29T15:21:33.526Z,16.4
2023-03-29T15:27:39.940Z,16.4
2023-03-29T15:33:45.561Z,16.4
2023-03-29T15:39:51.675Z,16.4
2023-03-29T15:45:57.682Z,16.4
2023-03-29T15:52:03.106Z,16.4
2023-03-29T15:58:09.123Z,16.4
2023-03-29T16:04:16.030Z,16.4
2023-03-29T16:10:21.641Z,16.4
2023-03-29T16:16:27.462Z,16.4
2023-03-29T16:22:33.752Z,16.5
2023-03-29T16:28:39.561Z,16.4
2023-03-29T16:34:44.791Z,16.5
2023-03-29T16:40:50.710Z,16.5
2023-03-29T16:46:56.515Z,16.5
2023-03-29T16:53:02.444Z,16.5
2023-03-29T16:59:08.451Z,16.5
2023-03-29T17:05:14.527Z,16.5
2023-03-29T17:11:20.610Z,16.5
2023-03-29T17:17:26.764Z,16.5
2023-03-29T17:23:32.606Z,16.5
2023-03-29T17:29:38.354Z,16.5
2023-03-29T17:35:44.769Z,16.5
2023-03-29T17:41:51.137Z,16.5
2023-03-29T17:47:57.190Z,16.5
2023-03-29T17:54:02.934Z,16.5
2023-03-29T18:00:08.307Z,16.5
2023-03-29T18:06:13.622Z,16.5
2023-03-29T18:12:19.653Z,16.5
2023-03-29T18:18:25.796Z,16.5
2023-03-29T18:24:31.975Z,16.5
2023-03-29T18:30:37.973Z,16.5
2023-03-29T18:36:44.160Z,16.5
2023-03-29T18:42:49.934Z,16.5
2023-03-29T18:48:56.511Z,16.5
2023-03-29T18:55:02.701Z,16.5
2023-03-29T19:01:08.782Z,16.6
2023-03-29T19:07:14.937Z,16.6
2023-03-29T19:13:21.060Z,16.6
2023-03-29T19:19:26.290Z,16.6
2023-03-29T19:25:32.277Z,16.6
2023-03-29T19:31:38.371Z,16.6
2023-03-29T19:37:44.579Z,16.6
2023-03-29T19:43:50.955Z,16.6
2023-03-29T19:49:56.796Z,16.6
2023-03-29T19:56:02.098Z,16.6
2023-03-29T20:02:08.713Z,16.6
2023-03-29T20:08:15.078Z,16.6
2023-03-29T20:14:20.452Z,16.6
2023-03-29T20:20:26.658Z,16.6
2023-03-29T20:26:32.437Z,16.6
2023-03-29T20:32:37.685Z,16.6
2023-03-29T20:38:43.138Z,16.6
2023-03-29T20:44:48.324Z,16.6
2023-03-29T20:50:53.506Z,16.6
2023-03-29T20:56:59.088Z,16.7
2023-03-29T21:03:04.297Z,16.6
2023-03-29T21:09:10.212Z,16.6
2023-03-29T21:15:15.703Z,16.7
2023-03-29T21:21:21.781Z,16.7
2023-03-29T21:27:27.567Z,16.7
2023-03-29T21:33:33.548Z,16.7
2023-03-29T21:39:39.117Z,16.6
2023-03-29T21:45:45.089Z,16.6
2023-03-29T21:51:50.868Z,16.7
2023-03-29T21:57:56.437Z,16.6
2023-03-29T22:04:01.651Z,16.6
2023-03-29T22:10:07.429Z,16.6
2023-03-29T22:16:12.821Z,16.6
2023-03-29T22:22:18.789Z,16.6
2023-03-29T22:28:24.567Z,16.6
2023-03-29T22:34:30.347Z,16.6
2023-03-29T22:40:36.125Z,16.6
2023-03-29T22:46:41.908Z,16.6
2023-03-29T22:52:47.444Z,16.6
2023-03-29T22:58:53.604Z,16.6
2023-03-29T23:04:58.894Z,16.6
2023-03-29T23:11:04.584Z,16.6
2023-03-29T23:17:10.801Z,16.6
2023-03-29T23:23:16.288Z,16.6
2023-03-29T23:29:21.975Z,16.6
2023-03-29T23:35:26.894Z,16.6
2023-03-29T23:41:32.998Z,16.6
2023-03-29T23:47:38.808Z,16.6
2023-03-29T23:53:44.565Z,16.6
2023-03-29T23:59:49.949Z,16.6
